sensor_id;sensor_type;location;lat;lon;timestamp;P1;durP1;ratioP1;P2;durP2;ratioP2
7158;SDS011;63175;52.374;13.132;2023-12-28T00:00:32;5.27;;;2.70;;
7158;SDS011;63175;52.374;13.132;2023-12-28T00:02:59;2.73;;;2.53;;
7158;SDS011;63175;52.374;13.132;2023-12-28T00:05:27;3.40;;;2.70;;
7158;SDS011;63175;52.374;13.132;2023-12-28T00:07:54;4.37;;;3.03;;
7158;SDS011;63175;52.374;13.132;2023-12-28T00:10:23;4.33;;;2.30;;
7158;SDS011;63175;52.374;13.132;2023-12-28T00:12:50;3.33;;;2.60;;
7158;SDS011;63175;52.374;13.132;2023-12-28T00:15:17;11.27;;;3.40;;
7158;SDS011;63175;52.374;13.132;2023-12-28T00:17:44;4.27;;;2.30;;
7158;SDS011;63175;52.374;13.132;2023-12-28T00:20:11;5.50;;;2.80;;
7158;SDS011;63175;52.374;13.132;2023-12-28T00:22:39;3.53;;;2.50;;
7158;SDS011;63175;52.374;13.132;2023-12-28T00:25:06;4.60;;;2.40;;
7158;SDS011;63175;52.374;13.132;2023-12-28T00:27:33;5.37;;;3.03;;
7158;SDS011;63175;52.374;13.132;2023-12-28T00:30:03;4.67;;;2.20;;
7158;SDS011;63175;52.374;13.132;2023-12-28T00:32:30;8.83;;;3.20;;
7158;SDS011;63175;52.374;13.132;2023-12-28T00:34:57;4.20;;;2.93;;
7158;SDS011;63175;52.374;13.132;2023-12-28T00:37:24;2.77;;;2.53;;
7158;SDS011;63175;52.374;13.132;2023-12-28T00:39:52;5.17;;;2.60;;
7158;SDS011;63175;52.374;13.132;2023-12-28T00:42:19;3.57;;;2.50;;
7158;SDS011;63175;52.374;13.132;2023-12-28T00:44:46;6.00;;;2.57;;
7158;SDS011;63175;52.374;13.132;2023-12-28T00:47:12;2.63;;;2.40;;
7158;SDS011;63175;52.374;13.132;2023-12-28T00:49:39;4.30;;;2.70;;
7158;SDS011;63175;52.374;13.132;2023-12-28T00:52:06;2.03;;;1.93;;
7158;SDS011;63175;52.374;13.132;2023-12-28T00:54:34;4.23;;;2.23;;
7158;SDS011;63175;52.374;13.132;2023-12-28T00:57:04;6.90;;;2.00;;
7158;SDS011;63175;52.374;13.132;2023-12-28T00:59:31;3.80;;;2.37;;
7158;SDS011;63175;52.374;13.132;2023-12-28T01:01:57;6.60;;;1.70;;
7158;SDS011;63175;52.374;13.132;2023-12-28T01:04:24;2.37;;;2.17;;
7158;SDS011;63175;52.374;13.132;2023-12-28T01:06:51;4.53;;;2.50;;
7158;SDS011;63175;52.374;13.132;2023-12-28T01:09:18;1.80;;;1.70;;
7158;SDS011;63175;52.374;13.132;2023-12-28T01:11:45;2.27;;;1.80;;
7158;SDS011;63175;52.374;13.132;2023-12-28T01:14:13;5.57;;;2.03;;
7158;SDS011;63175;52.374;13.132;2023-12-28T01:16:40;2.70;;;1.87;;
7158;SDS011;63175;52.374;13.132;2023-12-28T01:19:09;4.60;;;2.53;;
7158;SDS011;63175;52.374;13.132;2023-12-28T01:21:36;4.03;;;2.10;;
7158;SDS011;63175;52.374;13.132;2023-12-28T01:24:03;2.10;;;1.77;;
7158;SDS011;63175;52.374;13.132;2023-12-28T01:26:30;3.60;;;2.00;;
7158;SDS011;63175;52.374;13.132;2023-12-28T01:28:57;4.37;;;1.90;;
7158;SDS011;63175;52.374;13.132;2023-12-28T01:31:28;2.17;;;1.60;;
7158;SDS011;63175;52.374;13.132;2023-12-28T01:33:54;3.10;;;1.80;;
7158;SDS011;63175;52.374;13.132;2023-12-28T01:36:22;1.50;;;1.40;;
7158;SDS011;63175;52.374;13.132;2023-12-28T01:38:49;3.60;;;1.60;;
7158;SDS011;63175;52.374;13.132;2023-12-28T01:41:15;2.00;;;1.50;;
7158;SDS011;63175;52.374;13.132;2023-12-28T01:43:42;3.57;;;1.30;;
7158;SDS011;63175;52.374;13.132;2023-12-28T01:46:10;1.63;;;1.53;;
7158;SDS011;63175;52.374;13.132;2023-12-28T01:48:44;1.77;;;1.67;;
7158;SDS011;63175;52.374;13.132;2023-12-28T01:51:13;3.27;;;1.70;;
7158;SDS011;63175;52.374;13.132;2023-12-28T01:53:40;3.40;;;2.00;;
7158;SDS011;63175;52.374;13.132;2023-12-28T01:56:08;1.37;;;1.27;;
7158;SDS011;63175;52.374;13.132;2023-12-28T01:58:35;2.00;;;1.67;;
7158;SDS011;63175;52.374;13.132;2023-12-28T02:01:05;2.43;;;1.60;;
7158;SDS011;63175;52.374;13.132;2023-12-28T02:03:32;2.20;;;1.80;;
7158;SDS011;63175;52.374;13.132;2023-12-28T02:06:01;2.10;;;1.60;;
7158;SDS011;63175;52.374;13.132;2023-12-28T02:08:29;1.70;;;1.20;;
7158;SDS011;63175;52.374;13.132;2023-12-28T02:10:56;3.20;;;1.87;;
7158;SDS011;63175;52.374;13.132;2023-12-28T02:13:23;3.90;;;1.40;;
7158;SDS011;63175;52.374;13.132;2023-12-28T02:15:51;1.50;;;1.40;;
7158;SDS011;63175;52.374;13.132;2023-12-28T02:18:21;1.53;;;1.43;;
7158;SDS011;63175;52.374;13.132;2023-12-28T02:20:53;1.63;;;1.37;;
7158;SDS011;63175;52.374;13.132;2023-12-28T02:23:23;4.40;;;1.50;;
7158;SDS011;63175;52.374;13.132;2023-12-28T02:25:51;1.97;;;1.60;;
7158;SDS011;63175;52.374;13.132;2023-12-28T02:28:18;2.20;;;1.50;;
7158;SDS011;63175;52.374;13.132;2023-12-28T02:30:45;3.70;;;1.53;;
7158;SDS011;63175;52.374;13.132;2023-12-28T02:33:12;3.27;;;1.47;;
7158;SDS011;63175;52.374;13.132;2023-12-28T02:35:45;1.50;;;1.23;;
7158;SDS011;63175;52.374;13.132;2023-12-28T02:38:17;2.20;;;1.63;;
7158;SDS011;63175;52.374;13.132;2023-12-28T02:40:45;1.50;;;1.20;;
7158;SDS011;63175;52.374;13.132;2023-12-28T02:43:16;6.30;;;1.50;;
7158;SDS011;63175;52.374;13.132;2023-12-28T02:45:43;1.70;;;1.27;;
7158;SDS011;63175;52.374;13.132;2023-12-28T02:48:10;1.60;;;1.33;;
7158;SDS011;63175;52.374;13.132;2023-12-28T02:50:37;1.07;;;1.07;;
7158;SDS011;63175;52.374;13.132;2023-12-28T02:53:03;2.20;;;1.80;;
7158;SDS011;63175;52.374;13.132;2023-12-28T02:55:30;1.20;;;1.20;;
7158;SDS011;63175;52.374;13.132;2023-12-28T02:57:57;1.13;;;1.00;;
7158;SDS011;63175;52.374;13.132;2023-12-28T03:00:26;1.90;;;1.67;;
7158;SDS011;63175;52.374;13.132;2023-12-28T03:02:54;1.60;;;1.50;;
7158;SDS011;63175;52.374;13.132;2023-12-28T03:05:20;3.83;;;1.20;;
7158;SDS011;63175;52.374;13.132;2023-12-28T03:07:47;1.93;;;1.23;;
7158;SDS011;63175;52.374;13.132;2023-12-28T03:10:15;1.33;;;1.20;;
7158;SDS011;63175;52.374;13.132;2023-12-28T03:12:42;1.53;;;1.43;;
7158;SDS011;63175;52.374;13.132;2023-12-28T03:15:08;0.80;;;0.80;;
7158;SDS011;63175;52.374;13.132;2023-12-28T03:17:37;1.97;;;1.30;;
7158;SDS011;63175;52.374;13.132;2023-12-28T03:20:04;1.10;;;1.00;;
7158;SDS011;63175;52.374;13.132;2023-12-28T03:22:32;2.30;;;1.20;;
7158;SDS011;63175;52.374;13.132;2023-12-28T03:24:58;1.33;;;1.23;;
7158;SDS011;63175;52.374;13.132;2023-12-28T03:27:25;1.63;;;1.23;;
7158;SDS011;63175;52.374;13.132;2023-12-28T03:29:52;2.17;;;1.40;;
7158;SDS011;63175;52.374;13.132;2023-12-28T03:32:19;1.13;;;1.00;;
7158;SDS011;63175;52.374;13.132;2023-12-28T03:34:47;0.80;;;0.80;;
7158;SDS011;63175;52.374;13.132;2023-12-28T03:37:14;2.67;;;1.30;;
7158;SDS011;63175;52.374;13.132;2023-12-28T03:39:41;1.00;;;1.00;;
7158;SDS011;63175;52.374;13.132;2023-12-28T03:42:08;1.57;;;1.40;;
7158;SDS011;63175;52.374;13.132;2023-12-28T03:44:35;1.40;;;1.30;;
7158;SDS011;63175;52.374;13.132;2023-12-28T03:47:02;2.10;;;1.23;;
7158;SDS011;63175;52.374;13.132;2023-12-28T03:49:29;4.43;;;1.30;;
7158;SDS011;63175;52.374;13.132;2023-12-28T03:51:58;1.97;;;1.13;;
7158;SDS011;63175;52.374;13.132;2023-12-28T03:54:24;2.33;;;1.50;;
7158;SDS011;63175;52.374;13.132;2023-12-28T03:56:51;1.27;;;1.17;;
7158;SDS011;63175;52.374;13.132;2023-12-28T03:59:19;2.17;;;1.20;;
7158;SDS011;63175;52.374;13.132;2023-12-28T04:01:46;1.77;;;1.13;;
7158;SDS011;63175;52.374;13.132;2023-12-28T04:04:13;1.70;;;1.60;;
7158;SDS011;63175;52.374;13.132;2023-12-28T04:06:39;1.20;;;1.10;;
7158;SDS011;63175;52.374;13.132;2023-12-28T04:09:09;1.13;;;1.00;;
7158;SDS011;63175;52.374;13.132;2023-12-28T04:11:37;1.27;;;1.17;;
7158;SDS011;63175;52.374;13.132;2023-12-28T04:14:04;1.17;;;1.00;;
7158;SDS011;63175;52.374;13.132;2023-12-28T04:16:31;1.67;;;1.20;;
7158;SDS011;63175;52.374;13.132;2023-12-28T04:18:58;2.30;;;1.60;;
7158;SDS011;63175;52.374;13.132;2023-12-28T04:21:25;1.00;;;0.73;;
7158;SDS011;63175;52.374;13.132;2023-12-28T04:23:51;2.07;;;0.90;;
7158;SDS011;63175;52.374;13.132;2023-12-28T04:26:20;1.10;;;0.93;;
7158;SDS011;63175;52.374;13.132;2023-12-28T04:28:46;1.00;;;1.00;;
7158;SDS011;63175;52.374;13.132;2023-12-28T04:31:13;1.33;;;1.23;;
7158;SDS011;63175;52.374;13.132;2023-12-28T04:33:40;1.70;;;1.20;;
7158;SDS011;63175;52.374;13.132;2023-12-28T04:36:07;1.73;;;1.30;;
7158;SDS011;63175;52.374;13.132;2023-12-28T04:38:34;1.87;;;1.30;;
7158;SDS011;63175;52.374;13.132;2023-12-28T04:41:01;1.67;;;1.40;;
7158;SDS011;63175;52.374;13.132;2023-12-28T04:43:29;2.60;;;1.00;;
7158;SDS011;63175;52.374;13.132;2023-12-28T04:45:56;2.20;;;1.30;;
7158;SDS011;63175;52.374;13.132;2023-12-28T04:48:23;1.63;;;1.23;;
7158;SDS011;63175;52.374;13.132;2023-12-28T04:50:51;3.00;;;1.30;;
7158;SDS011;63175;52.374;13.132;2023-12-28T04:53:17;1.43;;;1.30;;
7158;SDS011;63175;52.374;13.132;2023-12-28T04:55:44;1.37;;;1.00;;
7158;SDS011;63175;52.374;13.132;2023-12-28T04:58:11;1.40;;;0.90;;
7158;SDS011;63175;52.374;13.132;2023-12-28T05:00:39;1.10;;;1.00;;
7158;SDS011;63175;52.374;13.132;2023-12-28T05:03:07;1.13;;;0.87;;
7158;SDS011;63175;52.374;13.132;2023-12-28T05:05:33;0.93;;;0.80;;
7158;SDS011;63175;52.374;13.132;2023-12-28T05:08:00;1.33;;;1.17;;
7158;SDS011;63175;52.374;13.132;2023-12-28T05:10:27;2.90;;;1.00;;
7158;SDS011;63175;52.374;13.132;2023-12-28T05:12:54;3.83;;;1.20;;
7158;SDS011;63175;52.374;13.132;2023-12-28T05:15:21;1.83;;;1.10;;
7158;SDS011;63175;52.374;13.132;2023-12-28T05:17:49;1.73;;;1.20;;
7158;SDS011;63175;52.374;13.132;2023-12-28T05:20:16;1.00;;;0.90;;
7158;SDS011;63175;52.374;13.132;2023-12-28T05:22:43;1.20;;;1.10;;
7158;SDS011;63175;52.374;13.132;2023-12-28T05:25:10;1.30;;;1.20;;
7158;SDS011;63175;52.374;13.132;2023-12-28T05:27:37;3.40;;;1.40;;
7158;SDS011;63175;52.374;13.132;2023-12-28T05:30:05;2.80;;;1.43;;
7158;SDS011;63175;52.374;13.132;2023-12-28T05:32:33;1.43;;;1.20;;
7158;SDS011;63175;52.374;13.132;2023-12-28T05:35:01;1.67;;;1.27;;
7158;SDS011;63175;52.374;13.132;2023-12-28T05:37:29;1.50;;;1.17;;
7158;SDS011;63175;52.374;13.132;2023-12-28T05:39:56;1.73;;;1.20;;
7158;SDS011;63175;52.374;13.132;2023-12-28T05:42:23;2.70;;;0.97;;
7158;SDS011;63175;52.374;13.132;2023-12-28T05:44:50;2.30;;;1.27;;
7158;SDS011;63175;52.374;13.132;2023-12-28T05:47:17;1.50;;;0.97;;
7158;SDS011;63175;52.374;13.132;2023-12-28T05:49:44;1.80;;;1.37;;
7158;SDS011;63175;52.374;13.132;2023-12-28T05:52:12;2.37;;;1.47;;
7158;SDS011;63175;52.374;13.132;2023-12-28T05:54:40;1.20;;;1.10;;
7158;SDS011;63175;52.374;13.132;2023-12-28T05:57:07;1.57;;;1.30;;
7158;SDS011;63175;52.374;13.132;2023-12-28T05:59:37;2.60;;;1.40;;
7158;SDS011;63175;52.374;13.132;2023-12-28T06:02:04;1.60;;;1.37;;
7158;SDS011;63175;52.374;13.132;2023-12-28T06:04:31;1.60;;;1.30;;
7158;SDS011;63175;52.374;13.132;2023-12-28T06:06:58;1.00;;;1.00;;
7158;SDS011;63175;52.374;13.132;2023-12-28T06:09:27;2.10;;;1.67;;
7158;SDS011;63175;52.374;13.132;2023-12-28T06:11:54;1.33;;;1.10;;
7158;SDS011;63175;52.374;13.132;2023-12-28T06:14:20;1.70;;;1.60;;
7158;SDS011;63175;52.374;13.132;2023-12-28T06:16:47;1.50;;;1.40;;
7158;SDS011;63175;52.374;13.132;2023-12-28T06:19:14;1.30;;;1.20;;
7158;SDS011;63175;52.374;13.132;2023-12-28T06:21:41;1.50;;;1.03;;
7158;SDS011;63175;52.374;13.132;2023-12-28T06:24:08;1.47;;;1.17;;
7158;SDS011;63175;52.374;13.132;2023-12-28T06:26:39;5.70;;;1.33;;
7158;SDS011;63175;52.374;13.132;2023-12-28T06:29:07;3.13;;;1.40;;
7158;SDS011;63175;52.374;13.132;2023-12-28T06:31:34;1.70;;;1.20;;
7158;SDS011;63175;52.374;13.132;2023-12-28T06:34:02;2.50;;;1.00;;
7158;SDS011;63175;52.374;13.132;2023-12-28T06:36:29;2.43;;;1.27;;
7158;SDS011;63175;52.374;13.132;2023-12-28T06:38:56;1.20;;;1.10;;
7158;SDS011;63175;52.374;13.132;2023-12-28T06:41:23;2.20;;;1.60;;
7158;SDS011;63175;52.374;13.132;2023-12-28T06:43:51;1.50;;;1.17;;
7158;SDS011;63175;52.374;13.132;2023-12-28T06:46:29;1.23;;;1.03;;
7158;SDS011;63175;52.374;13.132;2023-12-28T06:48:56;1.70;;;1.43;;
7158;SDS011;63175;52.374;13.132;2023-12-28T06:51:24;1.70;;;1.33;;
7158;SDS011;63175;52.374;13.132;2023-12-28T06:53:51;13.47;;;1.30;;
7158;SDS011;63175;52.374;13.132;2023-12-28T06:56:18;3.50;;;1.40;;
7158;SDS011;63175;52.374;13.132;2023-12-28T06:58:45;1.33;;;1.00;;
7158;SDS011;63175;52.374;13.132;2023-12-28T07:01:13;1.43;;;1.33;;
7158;SDS011;63175;52.374;13.132;2023-12-28T07:03:40;1.50;;;1.13;;
7158;SDS011;63175;52.374;13.132;2023-12-28T07:06:07;1.50;;;1.30;;
7158;SDS011;63175;52.374;13.132;2023-12-28T07:08:34;3.30;;;1.33;;
7158;SDS011;63175;52.374;13.132;2023-12-28T07:11:01;5.87;;;2.33;;
7158;SDS011;63175;52.374;13.132;2023-12-28T07:13:28;1.40;;;1.20;;
7158;SDS011;63175;52.374;13.132;2023-12-28T07:15:55;1.90;;;1.53;;
7158;SDS011;63175;52.374;13.132;2023-12-28T07:18:23;4.83;;;1.73;;
7158;SDS011;63175;52.374;13.132;2023-12-28T07:20:50;1.90;;;1.80;;
7158;SDS011;63175;52.374;13.132;2023-12-28T07:23:17;0.90;;;0.90;;
7158;SDS011;63175;52.374;13.132;2023-12-28T07:25:44;1.47;;;1.37;;
7158;SDS011;63175;52.374;13.132;2023-12-28T07:28:11;1.53;;;1.43;;
7158;SDS011;63175;52.374;13.132;2023-12-28T07:30:38;1.43;;;1.33;;
7158;SDS011;63175;52.374;13.132;2023-12-28T07:33:06;3.17;;;1.33;;
7158;SDS011;63175;52.374;13.132;2023-12-28T07:35:34;2.07;;;1.40;;
7158;SDS011;63175;52.374;13.132;2023-12-28T07:38:01;1.60;;;1.50;;
7158;SDS011;63175;52.374;13.132;2023-12-28T07:40:28;2.00;;;1.07;;
7158;SDS011;63175;52.374;13.132;2023-12-28T07:42:55;1.47;;;1.37;;
7158;SDS011;63175;52.374;13.132;2023-12-28T07:45:22;1.50;;;1.40;;
7158;SDS011;63175;52.374;13.132;2023-12-28T07:47:49;1.93;;;1.40;;
7158;SDS011;63175;52.374;13.132;2023-12-28T07:50:16;2.00;;;1.80;;
7158;SDS011;63175;52.374;13.132;2023-12-28T07:52:45;1.53;;;1.40;;
7158;SDS011;63175;52.374;13.132;2023-12-28T07:55:13;2.00;;;1.73;;
7158;SDS011;63175;52.374;13.132;2023-12-28T07:57:40;1.43;;;1.33;;
7158;SDS011;63175;52.374;13.132;2023-12-28T08:00:07;1.73;;;1.27;;
7158;SDS011;63175;52.374;13.132;2023-12-28T08:02:35;3.00;;;1.60;;
7158;SDS011;63175;52.374;13.132;2023-12-28T08:05:02;2.20;;;1.53;;
7158;SDS011;63175;52.374;13.132;2023-12-28T08:07:29;1.60;;;1.50;;
7158;SDS011;63175;52.374;13.132;2023-12-28T08:09:57;1.63;;;1.40;;
7158;SDS011;63175;52.374;13.132;2023-12-28T08:12:24;1.30;;;1.20;;
7158;SDS011;63175;52.374;13.132;2023-12-28T08:14:52;2.30;;;1.80;;
7158;SDS011;63175;52.374;13.132;2023-12-28T08:17:20;1.40;;;1.20;;
7158;SDS011;63175;52.374;13.132;2023-12-28T08:19:46;1.93;;;1.60;;
7158;SDS011;63175;52.374;13.132;2023-12-28T08:22:13;2.37;;;1.50;;
7158;SDS011;63175;52.374;13.132;2023-12-28T08:24:40;2.50;;;1.53;;
7158;SDS011;63175;52.374;13.132;2023-12-28T08:27:08;1.97;;;1.30;;
7158;SDS011;63175;52.374;13.132;2023-12-28T08:29:35;3.47;;;1.67;;
7158;SDS011;63175;52.374;13.132;2023-12-28T08:32:02;1.43;;;1.33;;
7158;SDS011;63175;52.374;13.132;2023-12-28T08:34:30;3.63;;;1.50;;
7158;SDS011;63175;52.374;13.132;2023-12-28T08:36:57;2.47;;;1.43;;
7158;SDS011;63175;52.374;13.132;2023-12-28T08:39:23;2.10;;;1.90;;
7158;SDS011;63175;52.374;13.132;2023-12-28T08:41:50;2.40;;;1.53;;
7158;SDS011;63175;52.374;13.132;2023-12-28T08:44:19;1.67;;;1.57;;
7158;SDS011;63175;52.374;13.132;2023-12-28T08:46:45;2.17;;;1.43;;
7158;SDS011;63175;52.374;13.132;2023-12-28T08:49:12;1.60;;;1.43;;
7158;SDS011;63175;52.374;13.132;2023-12-28T08:51:40;1.60;;;1.50;;
7158;SDS011;63175;52.374;13.132;2023-12-28T08:54:07;1.60;;;1.50;;
7158;SDS011;63175;52.374;13.132;2023-12-28T08:56:34;2.13;;;1.93;;
7158;SDS011;63175;52.374;13.132;2023-12-28T08:59:01;1.73;;;1.50;;
7158;SDS011;63175;52.374;13.132;2023-12-28T09:01:30;2.30;;;2.00;;
7158;SDS011;63175;52.374;13.132;2023-12-28T09:03:57;1.63;;;1.50;;
7158;SDS011;63175;52.374;13.132;2023-12-28T09:06:24;2.27;;;1.80;;
7158;SDS011;63175;52.374;13.132;2023-12-28T09:08:51;2.03;;;1.83;;
7158;SDS011;63175;52.374;13.132;2023-12-28T09:11:19;3.60;;;1.43;;
7158;SDS011;63175;52.374;13.132;2023-12-28T09:13:46;3.10;;;2.10;;
7158;SDS011;63175;52.374;13.132;2023-12-28T09:16:13;2.37;;;1.87;;
7158;SDS011;63175;52.374;13.132;2023-12-28T09:18:42;5.33;;;1.73;;
7158;SDS011;63175;52.374;13.132;2023-12-28T09:21:09;1.77;;;1.53;;
7158;SDS011;63175;52.374;13.132;2023-12-28T09:23:36;4.87;;;1.60;;
7158;SDS011;63175;52.374;13.132;2023-12-28T09:26:05;2.20;;;1.97;;
7158;SDS011;63175;52.374;13.132;2023-12-28T09:28:33;1.70;;;1.60;;
7158;SDS011;63175;52.374;13.132;2023-12-28T09:31:00;1.90;;;1.60;;
7158;SDS011;63175;52.374;13.132;2023-12-28T09:33:27;4.40;;;1.73;;
7158;SDS011;63175;52.374;13.132;2023-12-28T09:35:55;2.50;;;2.23;;
7158;SDS011;63175;52.374;13.132;2023-12-28T09:38:22;2.10;;;1.90;;
7158;SDS011;63175;52.374;13.132;2023-12-28T09:40:52;2.00;;;1.70;;
7158;SDS011;63175;52.374;13.132;2023-12-28T09:43:21;1.67;;;1.53;;
7158;SDS011;63175;52.374;13.132;2023-12-28T09:45:50;2.30;;;1.60;;
7158;SDS011;63175;52.374;13.132;2023-12-28T09:48:17;2.07;;;1.80;;
7158;SDS011;63175;52.374;13.132;2023-12-28T09:50:45;2.83;;;1.20;;
7158;SDS011;63175;52.374;13.132;2023-12-28T09:53:16;2.00;;;1.80;;
7158;SDS011;63175;52.374;13.132;2023-12-28T09:55:43;2.27;;;1.90;;
7158;SDS011;63175;52.374;13.132;2023-12-28T09:58:11;2.20;;;2.00;;
7158;SDS011;63175;52.374;13.132;2023-12-28T10:00:42;2.17;;;1.93;;
7158;SDS011;63175;52.374;13.132;2023-12-28T10:03:11;4.63;;;1.97;;
7158;SDS011;63175;52.374;13.132;2023-12-28T10:05:40;2.23;;;1.50;;
7158;SDS011;63175;52.374;13.132;2023-12-28T10:08:07;2.30;;;1.90;;
7158;SDS011;63175;52.374;13.132;2023-12-28T10:10:36;2.37;;;1.70;;
7158;SDS011;63175;52.374;13.132;2023-12-28T10:13:03;2.30;;;2.10;;
7158;SDS011;63175;52.374;13.132;2023-12-28T10:15:30;5.00;;;1.80;;
7158;SDS011;63175;52.374;13.132;2023-12-28T10:17:57;3.20;;;1.63;;
7158;SDS011;63175;52.374;13.132;2023-12-28T10:20:26;1.50;;;1.40;;
7158;SDS011;63175;52.374;13.132;2023-12-28T10:22:53;1.90;;;1.80;;
7158;SDS011;63175;52.374;13.132;2023-12-28T10:25:20;2.83;;;1.83;;
7158;SDS011;63175;52.374;13.132;2023-12-28T10:27:51;2.17;;;1.97;;
7158;SDS011;63175;52.374;13.132;2023-12-28T10:30:19;3.50;;;2.00;;
7158;SDS011;63175;52.374;13.132;2023-12-28T10:32:47;1.80;;;1.67;;
7158;SDS011;63175;52.374;13.132;2023-12-28T10:35:14;2.50;;;2.00;;
7158;SDS011;63175;52.374;13.132;2023-12-28T10:37:41;4.83;;;1.80;;
7158;SDS011;63175;52.374;13.132;2023-12-28T10:40:10;2.20;;;2.00;;
7158;SDS011;63175;52.374;13.132;2023-12-28T10:42:42;2.80;;;1.93;;
7158;SDS011;63175;52.374;13.132;2023-12-28T10:45:16;2.83;;;2.07;;
7158;SDS011;63175;52.374;13.132;2023-12-28T10:47:47;2.80;;;2.47;;
7158;SDS011;63175;52.374;13.132;2023-12-28T10:50:26;2.70;;;1.80;;
7158;SDS011;63175;52.374;13.132;2023-12-28T10:52:56;3.53;;;2.00;;
7158;SDS011;63175;52.374;13.132;2023-12-28T10:55:33;2.60;;;1.90;;
7158;SDS011;63175;52.374;13.132;2023-12-28T10:58:08;1.60;;;1.50;;
7158;SDS011;63175;52.374;13.132;2023-12-28T11:00:41;1.80;;;1.70;;
7158;SDS011;63175;52.374;13.132;2023-12-28T11:03:14;3.90;;;1.90;;
7158;SDS011;63175;52.374;13.132;2023-12-28T11:05:47;2.37;;;1.90;;
7158;SDS011;63175;52.374;13.132;2023-12-28T11:08:14;2.40;;;1.30;;
7158;SDS011;63175;52.374;13.132;2023-12-28T11:10:42;1.60;;;1.50;;
7158;SDS011;63175;52.374;13.132;2023-12-28T11:13:09;2.93;;;1.90;;
7158;SDS011;63175;52.374;13.132;2023-12-28T11:15:37;2.20;;;2.00;;
7158;SDS011;63175;52.374;13.132;2023-12-28T11:18:06;1.97;;;1.37;;
7158;SDS011;63175;52.374;13.132;2023-12-28T11:20:33;2.00;;;1.73;;
7158;SDS011;63175;52.374;13.132;2023-12-28T11:23:01;1.73;;;1.50;;
7158;SDS011;63175;52.374;13.132;2023-12-28T11:25:30;2.40;;;2.03;;
7158;SDS011;63175;52.374;13.132;2023-12-28T11:27:58;2.70;;;1.73;;
7158;SDS011;63175;52.374;13.132;2023-12-28T11:30:26;1.90;;;1.80;;
7158;SDS011;63175;52.374;13.132;2023-12-28T11:32:57;4.87;;;2.30;;
7158;SDS011;63175;52.374;13.132;2023-12-28T11:35:24;2.70;;;1.87;;
7158;SDS011;63175;52.374;13.132;2023-12-28T11:38:00;1.50;;;1.40;;
7158;SDS011;63175;52.374;13.132;2023-12-28T11:40:31;2.20;;;1.70;;
7158;SDS011;63175;52.374;13.132;2023-12-28T11:43:05;2.40;;;1.73;;
7158;SDS011;63175;52.374;13.132;2023-12-28T11:45:46;2.07;;;1.70;;
7158;SDS011;63175;52.374;13.132;2023-12-28T11:48:23;1.60;;;1.50;;
7158;SDS011;63175;52.374;13.132;2023-12-28T11:50:52;3.00;;;1.97;;
7158;SDS011;63175;52.374;13.132;2023-12-28T11:53:21;2.53;;;1.80;;
7158;SDS011;63175;52.374;13.132;2023-12-28T11:55:48;4.20;;;1.97;;
7158;SDS011;63175;52.374;13.132;2023-12-28T11:58:15;1.47;;;1.37;;
7158;SDS011;63175;52.374;13.132;2023-12-28T12:00:43;3.30;;;1.70;;
7158;SDS011;63175;52.374;13.132;2023-12-28T12:03:10;2.33;;;1.90;;
7158;SDS011;63175;52.374;13.132;2023-12-28T12:05:38;3.03;;;1.60;;
7158;SDS011;63175;52.374;13.132;2023-12-28T12:08:06;3.40;;;1.90;;
7158;SDS011;63175;52.374;13.132;2023-12-28T12:10:35;2.13;;;1.93;;
7158;SDS011;63175;52.374;13.132;2023-12-28T12:13:02;3.17;;;1.63;;
7158;SDS011;63175;52.374;13.132;2023-12-28T12:15:29;2.90;;;2.10;;
7158;SDS011;63175;52.374;13.132;2023-12-28T12:17:56;1.50;;;1.30;;
7158;SDS011;63175;52.374;13.132;2023-12-28T12:20:24;8.47;;;1.67;;
7158;SDS011;63175;52.374;13.132;2023-12-28T12:22:52;2.07;;;1.80;;
7158;SDS011;63175;52.374;13.132;2023-12-28T12:25:19;2.43;;;1.97;;
7158;SDS011;63175;52.374;13.132;2023-12-28T12:27:46;1.87;;;1.50;;
7158;SDS011;63175;52.374;13.132;2023-12-28T12:30:13;6.10;;;2.10;;
7158;SDS011;63175;52.374;13.132;2023-12-28T12:32:40;2.40;;;1.50;;
7158;SDS011;63175;52.374;13.132;2023-12-28T12:35:08;1.60;;;1.33;;
7158;SDS011;63175;52.374;13.132;2023-12-28T12:37:36;2.23;;;2.00;;
7158;SDS011;63175;52.374;13.132;2023-12-28T12:40:05;2.80;;;1.57;;
7158;SDS011;63175;52.374;13.132;2023-12-28T12:42:33;3.77;;;1.83;;
7158;SDS011;63175;52.374;13.132;2023-12-28T12:45:00;2.30;;;1.87;;
7158;SDS011;63175;52.374;13.132;2023-12-28T12:47:31;2.87;;;1.53;;
7158;SDS011;63175;52.374;13.132;2023-12-28T12:49:59;1.87;;;1.67;;
7158;SDS011;63175;52.374;13.132;2023-12-28T12:52:26;4.97;;;1.90;;
7158;SDS011;63175;52.374;13.132;2023-12-28T12:54:54;3.47;;;1.67;;
7158;SDS011;63175;52.374;13.132;2023-12-28T12:57:23;6.47;;;1.63;;
7158;SDS011;63175;52.374;13.132;2023-12-28T12:59:51;1.53;;;1.43;;
7158;SDS011;63175;52.374;13.132;2023-12-28T13:02:18;1.90;;;1.30;;
7158;SDS011;63175;52.374;13.132;2023-12-28T13:04:49;2.17;;;2.00;;
7158;SDS011;63175;52.374;13.132;2023-12-28T13:07:17;1.77;;;1.57;;
7158;SDS011;63175;52.374;13.132;2023-12-28T13:09:44;3.00;;;1.47;;
7158;SDS011;63175;52.374;13.132;2023-12-28T13:12:12;3.83;;;2.17;;
7158;SDS011;63175;52.374;13.132;2023-12-28T13:14:40;2.80;;;1.80;;
7158;SDS011;63175;52.374;13.132;2023-12-28T13:17:09;1.40;;;1.30;;
7158;SDS011;63175;52.374;13.132;2023-12-28T13:19:36;2.53;;;1.63;;
7158;SDS011;63175;52.374;13.132;2023-12-28T13:22:03;2.67;;;2.47;;
7158;SDS011;63175;52.374;13.132;2023-12-28T13:24:30;2.10;;;2.00;;
7158;SDS011;63175;52.374;13.132;2023-12-28T13:26:57;1.93;;;1.80;;
7158;SDS011;63175;52.374;13.132;2023-12-28T13:29:24;1.97;;;1.77;;
7158;SDS011;63175;52.374;13.132;2023-12-28T13:31:52;2.40;;;2.20;;
7158;SDS011;63175;52.374;13.132;2023-12-28T13:34:19;2.53;;;2.10;;
7158;SDS011;63175;52.374;13.132;2023-12-28T13:36:46;4.20;;;1.67;;
7158;SDS011;63175;52.374;13.132;2023-12-28T13:39:13;2.80;;;1.80;;
7158;SDS011;63175;52.374;13.132;2023-12-28T13:41:40;4.20;;;1.80;;
7158;SDS011;63175;52.374;13.132;2023-12-28T13:44:06;1.50;;;1.40;;
7158;SDS011;63175;52.374;13.132;2023-12-28T13:46:37;3.60;;;1.80;;
7158;SDS011;63175;52.374;13.132;2023-12-28T13:49:05;1.90;;;1.20;;
7158;SDS011;63175;52.374;13.132;2023-12-28T13:51:32;3.10;;;1.57;;
7158;SDS011;63175;52.374;13.132;2023-12-28T13:53:59;1.90;;;1.70;;
7158;SDS011;63175;52.374;13.132;2023-12-28T13:56:26;2.47;;;1.50;;
7158;SDS011;63175;52.374;13.132;2023-12-28T13:58:53;4.40;;;2.17;;
7158;SDS011;63175;52.374;13.132;2023-12-28T14:01:20;3.17;;;2.00;;
7158;SDS011;63175;52.374;13.132;2023-12-28T14:03:47;2.53;;;1.80;;
7158;SDS011;63175;52.374;13.132;2023-12-28T14:06:17;2.10;;;1.90;;
7158;SDS011;63175;52.374;13.132;2023-12-28T14:08:45;3.37;;;1.77;;
7158;SDS011;63175;52.374;13.132;2023-12-28T14:11:12;3.97;;;1.70;;
7158;SDS011;63175;52.374;13.132;2023-12-28T14:13:39;2.67;;;1.70;;
7158;SDS011;63175;52.374;13.132;2023-12-28T14:16:06;3.27;;;1.90;;
7158;SDS011;63175;52.374;13.132;2023-12-28T14:18:33;2.47;;;1.50;;
7158;SDS011;63175;52.374;13.132;2023-12-28T14:21:00;2.00;;;1.57;;
7158;SDS011;63175;52.374;13.132;2023-12-28T14:23:30;3.17;;;1.73;;
7158;SDS011;63175;52.374;13.132;2023-12-28T14:25:57;3.03;;;1.43;;
7158;SDS011;63175;52.374;13.132;2023-12-28T14:28:25;2.23;;;1.60;;
7158;SDS011;63175;52.374;13.132;2023-12-28T14:30:56;1.90;;;1.30;;
7158;SDS011;63175;52.374;13.132;2023-12-28T14:33:24;1.30;;;1.20;;
7158;SDS011;63175;52.374;13.132;2023-12-28T14:35:51;1.37;;;1.27;;
7158;SDS011;63175;52.374;13.132;2023-12-28T14:38:18;1.80;;;1.27;;
7158;SDS011;63175;52.374;13.132;2023-12-28T14:40:47;2.20;;;1.43;;
7158;SDS011;63175;52.374;13.132;2023-12-28T14:43:16;1.70;;;1.60;;
7158;SDS011;63175;52.374;13.132;2023-12-28T14:45:43;2.27;;;1.50;;
7158;SDS011;63175;52.374;13.132;2023-12-28T14:48:11;5.30;;;1.60;;
7158;SDS011;63175;52.374;13.132;2023-12-28T14:50:38;2.40;;;1.67;;